sensor_id;sensor_type;location;lat;lon;timestamp;P1;durP1;ratioP1;P2;durP2;ratioP2
72573;SDS011;60603;52.548;13.420;2024-02-26T00:02:18;18.40;;;10.07;;
72573;SDS011;60603;52.548;13.420;2024-02-26T00:04:45;16.70;;;9.15;;
72573;SDS011;60603;52.548;13.420;2024-02-26T00:07:12;16.90;;;9.10;;
72573;SDS011;60603;52.548;13.420;2024-02-26T00:09:39;16.23;;;9.27;;
72573;SDS011;60603;52.548;13.420;2024-02-26T00:12:05;16.95;;;9.00;;
72573;SDS011;60603;52.548;13.420;2024-02-26T00:14:33;19.15;;;9.60;;
72573;SDS011;60603;52.548;13.420;2024-02-26T00:16:59;14.55;;;8.80;;
72573;SDS011;60603;52.548;13.420;2024-02-26T00:19:27;18.40;;;9.88;;
72573;SDS011;60603;52.548;13.420;2024-02-26T00:21:54;16.20;;;9.73;;
72573;SDS011;60603;52.548;13.420;2024-02-26T00:24:22;21.23;;;10.10;;
72573;SDS011;60603;52.548;13.420;2024-02-26T00:26:49;17.13;;;10.27;;
72573;SDS011;60603;52.548;13.420;2024-02-26T00:29:20;16.92;;;9.57;;
72573;SDS011;60603;52.548;13.420;2024-02-26T00:31:47;18.40;;;8.93;;
72573;SDS011;60603;52.548;13.420;2024-02-26T00:34:14;17.50;;;9.52;;
72573;SDS011;60603;52.548;13.420;2024-02-26T00:36:41;15.85;;;8.40;;
72573;SDS011;60603;52.548;13.420;2024-02-26T00:39:08;16.10;;;9.07;;
72573;SDS011;60603;52.548;13.420;2024-02-26T00:41:39;19.08;;;8.57;;
72573;SDS011;60603;52.548;13.420;2024-02-26T00:44:07;15.80;;;9.65;;
72573;SDS011;60603;52.548;13.420;2024-02-26T00:46:33;16.08;;;8.88;;
72573;SDS011;60603;52.548;13.420;2024-02-26T00:49:00;16.30;;;9.52;;
72573;SDS011;60603;52.548;13.420;2024-02-26T00:51:28;15.50;;;9.93;;
72573;SDS011;60603;52.548;13.420;2024-02-26T00:53:55;15.48;;;9.20;;
72573;SDS011;60603;52.548;13.420;2024-02-26T00:56:22;17.02;;;9.48;;
72573;SDS011;60603;52.548;13.420;2024-02-26T00:58:49;15.75;;;9.80;;
72573;SDS011;60603;52.548;13.420;2024-02-26T01:01:16;16.48;;;10.02;;
72573;SDS011;60603;52.548;13.420;2024-02-26T01:03:43;15.65;;;9.23;;
72573;SDS011;60603;52.548;13.420;2024-02-26T01:06:10;15.90;;;9.20;;
72573;SDS011;60603;52.548;13.420;2024-02-26T01:08:37;15.55;;;8.32;;
72573;SDS011;60603;52.548;13.420;2024-02-26T01:11:05;15.90;;;8.70;;
72573;SDS011;60603;52.548;13.420;2024-02-26T01:13:32;14.65;;;8.27;;
72573;SDS011;60603;52.548;13.420;2024-02-26T01:15:59;16.20;;;9.45;;
72573;SDS011;60603;52.548;13.420;2024-02-26T01:18:27;14.85;;;8.32;;
72573;SDS011;60603;52.548;13.420;2024-02-26T01:20:54;15.88;;;7.95;;
72573;SDS011;60603;52.548;13.420;2024-02-26T01:23:21;17.83;;;8.65;;
72573;SDS011;60603;52.548;13.420;2024-02-26T01:25:48;13.55;;;8.30;;
72573;SDS011;60603;52.548;13.420;2024-02-26T01:28:15;14.23;;;8.38;;
72573;SDS011;60603;52.548;13.420;2024-02-26T01:30:42;15.13;;;8.93;;
72573;SDS011;60603;52.548;13.420;2024-02-26T01:33:09;14.07;;;8.80;;
72573;SDS011;60603;52.548;13.420;2024-02-26T01:35:36;14.30;;;8.43;;
72573;SDS011;60603;52.548;13.420;2024-02-26T01:38:03;13.30;;;7.78;;
72573;SDS011;60603;52.548;13.420;2024-02-26T01:40:30;14.95;;;7.32;;
72573;SDS011;60603;52.548;13.420;2024-02-26T01:42:57;14.98;;;8.25;;
72573;SDS011;60603;52.548;13.420;2024-02-26T01:45:25;12.75;;;7.65;;
72573;SDS011;60603;52.548;13.420;2024-02-26T01:47:52;14.93;;;8.68;;
72573;SDS011;60603;52.548;13.420;2024-02-26T01:50:20;17.35;;;8.65;;
72573;SDS011;60603;52.548;13.420;2024-02-26T01:52:49;14.23;;;8.02;;
72573;SDS011;60603;52.548;13.420;2024-02-26T01:55:20;14.80;;;7.65;;
72573;SDS011;60603;52.548;13.420;2024-02-26T01:57:48;15.82;;;8.35;;
72573;SDS011;60603;52.548;13.420;2024-02-26T02:00:15;13.90;;;6.78;;
72573;SDS011;60603;52.548;13.420;2024-02-26T02:02:43;12.63;;;7.53;;
72573;SDS011;60603;52.548;13.420;2024-02-26T02:05:14;12.85;;;7.97;;
72573;SDS011;60603;52.548;13.420;2024-02-26T02:07:43;12.80;;;7.70;;
72573;SDS011;60603;52.548;13.420;2024-02-26T02:10:10;13.85;;;7.43;;
72573;SDS011;60603;52.548;13.420;2024-02-26T02:12:37;14.32;;;7.60;;
72573;SDS011;60603;52.548;13.420;2024-02-26T02:15:06;15.18;;;7.75;;
72573;SDS011;60603;52.548;13.420;2024-02-26T02:17:34;14.48;;;7.68;;
72573;SDS011;60603;52.548;13.420;2024-02-26T02:20:01;12.23;;;7.30;;
72573;SDS011;60603;52.548;13.420;2024-02-26T02:22:28;12.57;;;6.80;;
72573;SDS011;60603;52.548;13.420;2024-02-26T02:24:55;13.48;;;7.85;;
72573;SDS011;60603;52.548;13.420;2024-02-26T02:27:22;10.98;;;6.80;;
72573;SDS011;60603;52.548;13.420;2024-02-26T02:29:49;11.48;;;7.47;;
72573;SDS011;60603;52.548;13.420;2024-02-26T02:32:16;12.10;;;6.45;;
72573;SDS011;60603;52.548;13.420;2024-02-26T02:34:43;14.48;;;7.22;;
72573;SDS011;60603;52.548;13.420;2024-02-26T02:37:11;14.73;;;7.07;;
72573;SDS011;60603;52.548;13.420;2024-02-26T02:39:39;10.70;;;6.65;;
72573;SDS011;60603;52.548;13.420;2024-02-26T02:42:11;13.23;;;7.28;;
72573;SDS011;60603;52.548;13.420;2024-02-26T02:44:41;12.00;;;6.95;;
72573;SDS011;60603;52.548;13.420;2024-02-26T02:47:10;14.38;;;7.38;;
72573;SDS011;60603;52.548;13.420;2024-02-26T02:49:37;11.77;;;7.00;;
72573;SDS011;60603;52.548;13.420;2024-02-26T02:52:05;15.95;;;6.95;;
72573;SDS011;60603;52.548;13.420;2024-02-26T02:54:32;13.32;;;7.00;;
72573;SDS011;60603;52.548;13.420;2024-02-26T02:56:59;11.75;;;6.75;;
72573;SDS011;60603;52.548;13.420;2024-02-26T02:59:26;13.13;;;7.05;;
72573;SDS011;60603;52.548;13.420;2024-02-26T03:01:53;12.93;;;8.00;;
72573;SDS011;60603;52.548;13.420;2024-02-26T03:04:20;13.35;;;6.68;;
72573;SDS011;60603;52.548;13.420;2024-02-26T03:06:47;13.10;;;7.30;;
72573;SDS011;60603;52.548;13.420;2024-02-26T03:09:14;13.65;;;6.32;;
72573;SDS011;60603;52.548;13.420;2024-02-26T03:11:41;12.90;;;6.63;;
72573;SDS011;60603;52.548;13.420;2024-02-26T03:14:08;11.07;;;6.47;;
72573;SDS011;60603;52.548;13.420;2024-02-26T03:16:36;15.00;;;6.18;;
72573;SDS011;60603;52.548;13.420;2024-02-26T03:19:02;11.75;;;6.28;;
72573;SDS011;60603;52.548;13.420;2024-02-26T03:21:30;11.05;;;5.63;;
72573;SDS011;60603;52.548;13.420;2024-02-26T03:23:57;11.73;;;6.20;;
72573;SDS011;60603;52.548;13.420;2024-02-26T03:26:24;11.65;;;6.30;;
72573;SDS011;60603;52.548;13.420;2024-02-26T03:28:51;9.35;;;5.45;;
72573;SDS011;60603;52.548;13.420;2024-02-26T03:31:18;11.52;;;5.78;;
72573;SDS011;60603;52.548;13.420;2024-02-26T03:33:44;9.90;;;5.82;;
72573;SDS011;60603;52.548;13.420;2024-02-26T03:36:11;13.40;;;6.60;;
72573;SDS011;60603;52.548;13.420;2024-02-26T03:38:38;14.73;;;7.35;;
72573;SDS011;60603;52.548;13.420;2024-02-26T03:41:05;13.93;;;6.88;;
72573;SDS011;60603;52.548;13.420;2024-02-26T03:43:32;11.25;;;6.70;;
72573;SDS011;60603;52.548;13.420;2024-02-26T03:45:59;13.05;;;7.00;;
72573;SDS011;60603;52.548;13.420;2024-02-26T03:48:26;13.43;;;6.75;;
72573;SDS011;60603;52.548;13.420;2024-02-26T03:50:53;13.45;;;7.40;;
72573;SDS011;60603;52.548;13.420;2024-02-26T03:53:20;14.18;;;7.15;;
72573;SDS011;60603;52.548;13.420;2024-02-26T03:55:47;15.73;;;8.05;;
72573;SDS011;60603;52.548;13.420;2024-02-26T03:58:14;15.25;;;7.00;;
72573;SDS011;60603;52.548;13.420;2024-02-26T04:00:42;13.77;;;6.95;;
72573;SDS011;60603;52.548;13.420;2024-02-26T04:03:09;15.63;;;7.35;;
72573;SDS011;60603;52.548;13.420;2024-02-26T04:05:36;15.63;;;7.80;;
72573;SDS011;60603;52.548;13.420;2024-02-26T04:08:03;14.73;;;7.43;;
72573;SDS011;60603;52.548;13.420;2024-02-26T04:13:07;11.60;;;6.35;;
72573;SDS011;60603;52.548;13.420;2024-02-26T04:15:34;11.88;;;6.60;;
72573;SDS011;60603;52.548;13.420;2024-02-26T04:18:03;14.00;;;6.97;;
72573;SDS011;60603;52.548;13.420;2024-02-26T04:20:30;14.15;;;7.60;;
72573;SDS011;60603;52.548;13.420;2024-02-26T04:22:57;14.32;;;7.18;;
72573;SDS011;60603;52.548;13.420;2024-02-26T04:25:24;13.75;;;7.07;;
72573;SDS011;60603;52.548;13.420;2024-02-26T04:27:51;13.07;;;7.30;;
72573;SDS011;60603;52.548;13.420;2024-02-26T04:30:17;13.90;;;7.65;;
72573;SDS011;60603;52.548;13.420;2024-02-26T04:32:45;17.38;;;8.82;;
72573;SDS011;60603;52.548;13.420;2024-02-26T04:35:12;16.77;;;7.43;;
72573;SDS011;60603;52.548;13.420;2024-02-26T04:37:38;14.90;;;7.50;;
72573;SDS011;60603;52.548;13.420;2024-02-26T04:40:06;14.45;;;7.32;;
72573;SDS011;60603;52.548;13.420;2024-02-26T04:42:34;13.00;;;6.50;;
72573;SDS011;60603;52.548;13.420;2024-02-26T04:45:01;14.25;;;7.07;;
72573;SDS011;60603;52.548;13.420;2024-02-26T04:47:27;13.68;;;7.28;;
72573;SDS011;60603;52.548;13.420;2024-02-26T04:49:54;14.15;;;7.95;;
72573;SDS011;60603;52.548;13.420;2024-02-26T04:52:21;13.35;;;7.22;;
72573;SDS011;60603;52.548;13.420;2024-02-26T04:54:48;19.15;;;8.02;;
72573;SDS011;60603;52.548;13.420;2024-02-26T04:57:15;14.82;;;7.47;;
72573;SDS011;60603;52.548;13.420;2024-02-26T04:59:45;14.50;;;7.65;;
72573;SDS011;60603;52.548;13.420;2024-02-26T05:02:12;17.40;;;9.68;;
72573;SDS011;60603;52.548;13.420;2024-02-26T05:04:40;13.57;;;7.40;;
72573;SDS011;60603;52.548;13.420;2024-02-26T05:07:07;16.33;;;8.30;;
72573;SDS011;60603;52.548;13.420;2024-02-26T05:09:34;18.77;;;8.10;;
72573;SDS011;60603;52.548;13.420;2024-02-26T05:12:00;15.27;;;8.18;;
72573;SDS011;60603;52.548;13.420;2024-02-26T05:14:28;15.68;;;7.97;;
72573;SDS011;60603;52.548;13.420;2024-02-26T05:16:55;15.10;;;8.25;;
72573;SDS011;60603;52.548;13.420;2024-02-26T05:19:22;17.52;;;8.38;;
72573;SDS011;60603;52.548;13.420;2024-02-26T05:21:50;15.85;;;8.90;;
72573;SDS011;60603;52.548;13.420;2024-02-26T05:24:17;17.33;;;8.52;;
72573;SDS011;60603;52.548;13.420;2024-02-26T05:26:45;18.45;;;9.25;;
72573;SDS011;60603;52.548;13.420;2024-02-26T05:29:12;17.08;;;9.57;;
72573;SDS011;60603;52.548;13.420;2024-02-26T05:31:38;16.75;;;8.23;;
72573;SDS011;60603;52.548;13.420;2024-02-26T05:34:06;17.67;;;9.20;;
72573;SDS011;60603;52.548;13.420;2024-02-26T05:36:35;15.85;;;9.25;;
72573;SDS011;60603;52.548;13.420;2024-02-26T05:39:02;16.75;;;9.57;;
72573;SDS011;60603;52.548;13.420;2024-02-26T05:41:30;17.02;;;9.73;;
72573;SDS011;60603;52.548;13.420;2024-02-26T05:43:57;15.20;;;8.90;;
72573;SDS011;60603;52.548;13.420;2024-02-26T05:46:24;15.23;;;10.05;;
72573;SDS011;60603;52.548;13.420;2024-02-26T05:48:52;20.15;;;9.18;;
72573;SDS011;60603;52.548;13.420;2024-02-26T05:51:20;16.90;;;9.02;;
72573;SDS011;60603;52.548;13.420;2024-02-26T05:53:47;20.52;;;10.18;;
72573;SDS011;60603;52.548;13.420;2024-02-26T05:56:22;19.40;;;9.75;;
72573;SDS011;60603;52.548;13.420;2024-02-26T05:58:49;18.33;;;9.98;;
72573;SDS011;60603;52.548;13.420;2024-02-26T06:01:17;21.52;;;9.90;;
72573;SDS011;60603;52.548;13.420;2024-02-26T06:03:44;23.95;;;10.50;;
72573;SDS011;60603;52.548;13.420;2024-02-26T06:06:11;22.90;;;10.70;;
72573;SDS011;60603;52.548;13.420;2024-02-26T06:08:38;20.48;;;9.30;;
72573;SDS011;60603;52.548;13.420;2024-02-26T06:11:06;24.63;;;11.70;;
72573;SDS011;60603;52.548;13.420;2024-02-26T06:13:33;26.63;;;12.02;;
72573;SDS011;60603;52.548;13.420;2024-02-26T06:16:01;24.85;;;11.90;;
72573;SDS011;60603;52.548;13.420;2024-02-26T06:18:28;26.10;;;11.88;;
72573;SDS011;60603;52.548;13.420;2024-02-26T06:20:56;26.63;;;12.40;;
72573;SDS011;60603;52.548;13.420;2024-02-26T06:23:22;26.73;;;12.32;;
72573;SDS011;60603;52.548;13.420;2024-02-26T06:25:50;22.98;;;11.25;;
72573;SDS011;60603;52.548;13.420;2024-02-26T06:28:16;24.38;;;12.75;;
72573;SDS011;60603;52.548;13.420;2024-02-26T06:30:43;26.20;;;12.30;;
72573;SDS011;60603;52.548;13.420;2024-02-26T06:33:11;24.42;;;11.88;;
72573;SDS011;60603;52.548;13.420;2024-02-26T06:35:38;24.00;;;10.48;;
72573;SDS011;60603;52.548;13.420;2024-02-26T06:38:05;25.67;;;11.40;;
72573;SDS011;60603;52.548;13.420;2024-02-26T06:40:32;25.23;;;10.82;;
72573;SDS011;60603;52.548;13.420;2024-02-26T06:42:58;21.98;;;10.68;;
72573;SDS011;60603;52.548;13.420;2024-02-26T06:45:25;19.33;;;11.05;;
72573;SDS011;60603;52.548;13.420;2024-02-26T06:47:52;25.00;;;11.60;;
72573;SDS011;60603;52.548;13.420;2024-02-26T06:50:19;19.90;;;10.18;;
72573;SDS011;60603;52.548;13.420;2024-02-26T06:52:46;15.93;;;9.55;;
72573;SDS011;60603;52.548;13.420;2024-02-26T06:55:13;20.83;;;9.70;;
72573;SDS011;60603;52.548;13.420;2024-02-26T06:57:40;22.15;;;9.60;;
72573;SDS011;60603;52.548;13.420;2024-02-26T07:00:07;19.92;;;10.35;;
72573;SDS011;60603;52.548;13.420;2024-02-26T07:02:35;20.23;;;10.15;;
72573;SDS011;60603;52.548;13.420;2024-02-26T07:05:06;18.80;;;10.82;;
72573;SDS011;60603;52.548;13.420;2024-02-26T07:07:33;21.83;;;11.15;;
72573;SDS011;60603;52.548;13.420;2024-02-26T07:10:00;21.02;;;10.43;;
72573;SDS011;60603;52.548;13.420;2024-02-26T07:12:30;21.05;;;11.55;;
72573;SDS011;60603;52.548;13.420;2024-02-26T07:14:57;22.38;;;10.80;;
72573;SDS011;60603;52.548;13.420;2024-02-26T07:17:24;19.88;;;10.48;;
72573;SDS011;60603;52.548;13.420;2024-02-26T07:19:51;20.75;;;10.48;;
72573;SDS011;60603;52.548;13.420;2024-02-26T07:22:19;17.92;;;9.82;;
72573;SDS011;60603;52.548;13.420;2024-02-26T07:24:46;20.48;;;10.27;;
72573;SDS011;60603;52.548;13.420;2024-02-26T07:27:12;20.17;;;10.15;;
72573;SDS011;60603;52.548;13.420;2024-02-26T07:29:39;18.55;;;10.23;;
72573;SDS011;60603;52.548;13.420;2024-02-26T07:32:06;20.95;;;9.80;;
72573;SDS011;60603;52.548;13.420;2024-02-26T07:34:36;22.90;;;11.30;;
72573;SDS011;60603;52.548;13.420;2024-02-26T07:37:05;22.63;;;11.68;;
72573;SDS011;60603;52.548;13.420;2024-02-26T07:39:33;18.58;;;9.82;;
72573;SDS011;60603;52.548;13.420;2024-02-26T07:42:00;17.60;;;9.77;;
72573;SDS011;60603;52.548;13.420;2024-02-26T07:44:27;19.20;;;10.93;;
72573;SDS011;60603;52.548;13.420;2024-02-26T07:46:54;21.15;;;11.10;;
72573;SDS011;60603;52.548;13.420;2024-02-26T07:49:21;20.13;;;10.00;;
72573;SDS011;60603;52.548;13.420;2024-02-26T07:51:48;20.58;;;11.02;;
72573;SDS011;60603;52.548;13.420;2024-02-26T07:54:15;20.23;;;11.48;;
72573;SDS011;60603;52.548;13.420;2024-02-26T07:56:42;19.75;;;10.30;;
72573;SDS011;60603;52.548;13.420;2024-02-26T07:59:09;19.95;;;10.85;;
72573;SDS011;60603;52.548;13.420;2024-02-26T08:01:36;20.75;;;10.77;;
72573;SDS011;60603;52.548;13.420;2024-02-26T08:04:05;18.63;;;10.52;;
72573;SDS011;60603;52.548;13.420;2024-02-26T08:06:32;20.60;;;11.40;;
72573;SDS011;60603;52.548;13.420;2024-02-26T08:09:04;16.65;;;10.32;;
72573;SDS011;60603;52.548;13.420;2024-02-26T08:11:31;20.55;;;10.88;;
72573;SDS011;60603;52.548;13.420;2024-02-26T08:13:58;20.38;;;10.48;;
72573;SDS011;60603;52.548;13.420;2024-02-26T08:16:25;18.85;;;9.73;;
72573;SDS011;60603;52.548;13.420;2024-02-26T08:18:53;19.98;;;10.23;;
72573;SDS011;60603;52.548;13.420;2024-02-26T08:21:20;18.02;;;10.02;;
72573;SDS011;60603;52.548;13.420;2024-02-26T08:23:48;20.85;;;10.90;;
72573;SDS011;60603;52.548;13.420;2024-02-26T08:26:14;19.50;;;10.88;;
72573;SDS011;60603;52.548;13.420;2024-02-26T08:28:41;18.90;;;10.38;;
72573;SDS011;60603;52.548;13.420;2024-02-26T08:31:08;18.02;;;9.77;;
72573;SDS011;60603;52.548;13.420;2024-02-26T08:33:35;18.45;;;9.98;;
72573;SDS011;60603;52.548;13.420;2024-02-26T08:36:05;15.63;;;9.50;;
72573;SDS011;60603;52.548;13.420;2024-02-26T08:38:33;17.52;;;10.00;;
72573;SDS011;60603;52.548;13.420;2024-02-26T08:41:02;21.00;;;10.27;;
72573;SDS011;60603;52.548;13.420;2024-02-26T08:43:31;18.23;;;9.82;;
72573;SDS011;60603;52.548;13.420;2024-02-26T08:45:58;18.48;;;10.68;;
72573;SDS011;60603;52.548;13.420;2024-02-26T08:48:25;17.02;;;10.00;;
72573;SDS011;60603;52.548;13.420;2024-02-26T08:50:52;17.08;;;9.68;;
72573;SDS011;60603;52.548;13.420;2024-02-26T08:53:19;18.08;;;10.18;;
72573;SDS011;60603;52.548;13.420;2024-02-26T08:55:57;23.88;;;10.75;;
72573;SDS011;60603;52.548;13.420;2024-02-26T08:58:24;17.35;;;9.80;;
72573;SDS011;60603;52.548;13.420;2024-02-26T09:00:50;21.48;;;10.80;;
72573;SDS011;60603;52.548;13.420;2024-02-26T09:03:18;20.35;;;9.85;;
72573;SDS011;60603;52.548;13.420;2024-02-26T09:05:46;17.65;;;10.32;;
72573;SDS011;60603;52.548;13.420;2024-02-26T09:08:13;20.73;;;10.85;;
72573;SDS011;60603;52.548;13.420;2024-02-26T09:10:40;19.98;;;10.05;;
72573;SDS011;60603;52.548;13.420;2024-02-26T09:13:07;16.88;;;9.88;;
72573;SDS011;60603;52.548;13.420;2024-02-26T09:15:33;17.02;;;10.38;;
72573;SDS011;60603;52.548;13.420;2024-02-26T09:18:00;18.45;;;9.88;;
72573;SDS011;60603;52.548;13.420;2024-02-26T09:20:28;17.90;;;9.63;;
72573;SDS011;60603;52.548;13.420;2024-02-26T09:22:55;17.85;;;9.43;;
72573;SDS011;60603;52.548;13.420;2024-02-26T09:25:22;21.38;;;9.82;;
72573;SDS011;60603;52.548;13.420;2024-02-26T09:27:49;18.92;;;10.38;;
72573;SDS011;60603;52.548;13.420;2024-02-26T09:30:17;17.55;;;9.93;;
72573;SDS011;60603;52.548;13.420;2024-02-26T09:32:46;18.75;;;9.35;;
72573;SDS011;60603;52.548;13.420;2024-02-26T09:35:14;16.70;;;9.15;;
72573;SDS011;60603;52.548;13.420;2024-02-26T09:37:42;17.52;;;10.57;;
72573;SDS011;60603;52.548;13.420;2024-02-26T09:40:10;16.45;;;9.30;;
72573;SDS011;60603;52.548;13.420;2024-02-26T09:42:42;19.17;;;9.23;;
72573;SDS011;60603;52.548;13.420;2024-02-26T09:45:11;18.42;;;9.88;;
72573;SDS011;60603;52.548;13.420;2024-02-26T09:47:42;16.67;;;9.98;;
72573;SDS011;60603;52.548;13.420;2024-02-26T09:50:10;18.00;;;9.50;;
72573;SDS011;60603;52.548;13.420;2024-02-26T09:52:40;15.48;;;9.35;;
72573;SDS011;60603;52.548;13.420;2024-02-26T09:55:08;16.02;;;9.07;;
72573;SDS011;60603;52.548;13.420;2024-02-26T09:57:36;16.15;;;9.20;;
72573;SDS011;60603;52.548;13.420;2024-02-26T10:00:03;17.58;;;9.93;;
72573;SDS011;60603;52.548;13.420;2024-02-26T10:02:33;19.10;;;9.68;;
72573;SDS011;60603;52.548;13.420;2024-02-26T10:04:59;16.27;;;8.57;;
72573;SDS011;60603;52.548;13.420;2024-02-26T10:07:32;18.60;;;9.93;;
72573;SDS011;60603;52.548;13.420;2024-02-26T10:10:00;16.50;;;9.02;;
72573;SDS011;60603;52.548;13.420;2024-02-26T10:12:27;18.50;;;9.93;;
72573;SDS011;60603;52.548;13.420;2024-02-26T10:14:55;17.02;;;8.90;;
72573;SDS011;60603;52.548;13.420;2024-02-26T10:17:22;15.40;;;8.88;;
72573;SDS011;60603;52.548;13.420;2024-02-26T10:19:49;16.95;;;8.98;;
72573;SDS011;60603;52.548;13.420;2024-02-26T10:22:18;16.73;;;8.23;;
72573;SDS011;60603;52.548;13.420;2024-02-26T10:24:48;19.15;;;8.63;;
72573;SDS011;60603;52.548;13.420;2024-02-26T10:27:15;15.18;;;8.38;;
72573;SDS011;60603;52.548;13.420;2024-02-26T10:29:42;14.20;;;8.05;;
72573;SDS011;60603;52.548;13.420;2024-02-26T10:32:09;19.23;;;8.38;;
72573;SDS011;60603;52.548;13.420;2024-02-26T10:34:38;16.13;;;8.35;;
72573;SDS011;60603;52.548;13.420;2024-02-26T10:37:07;13.55;;;7.45;;
72573;SDS011;60603;52.548;13.420;2024-02-26T10:39:36;13.63;;;7.60;;
72573;SDS011;60603;52.548;13.420;2024-02-26T10:42:04;15.98;;;6.93;;
72573;SDS011;60603;52.548;13.420;2024-02-26T10:44:40;12.30;;;6.47;;
72573;SDS011;60603;52.548;13.420;2024-02-26T10:47:07;13.18;;;6.65;;
72573;SDS011;60603;52.548;13.420;2024-02-26T10:49:37;11.70;;;6.60;;
72573;SDS011;60603;52.548;13.420;2024-02-26T10:52:04;16.35;;;7.53;;
72573;SDS011;60603;52.548;13.420;2024-02-26T10:54:33;13.93;;;8.05;;
72573;SDS011;60603;52.548;13.420;2024-02-26T10:57:01;15.38;;;7.65;;
72573;SDS011;60603;52.548;13.420;2024-02-26T10:59:29;14.85;;;7.38;;
72573;SDS011;60603;52.548;13.420;2024-02-26T11:01:58;14.63;;;7.50;;
72573;SDS011;60603;52.548;13.420;2024-02-26T11:04:25;13.55;;;7.80;;
72573;SDS011;60603;52.548;13.420;2024-02-26T11:06:54;13.65;;;7.43;;
72573;SDS011;60603;52.548;13.420;2024-02-26T11:09:22;12.73;;;7.07;;
72573;SDS011;60603;52.548;13.420;2024-02-26T11:11:50;15.30;;;9.02;;
72573;SDS011;60603;52.548;13.420;2024-02-26T11:14:21;12.27;;;7.05;;
72573;SDS011;60603;52.548;13.420;2024-02-26T11:16:52;13.85;;;7.60;;
72573;SDS011;60603;52.548;13.420;2024-02-26T11:19:19;12.35;;;6.78;;
72573;SDS011;60603;52.548;13.420;2024-02-26T11:21:47;13.95;;;8.07;;
72573;SDS011;60603;52.548;13.420;2024-02-26T11:24:14;14.38;;;7.10;;
72573;SDS011;60603;52.548;13.420;2024-02-26T11:26:43;12.68;;;7.20;;
72573;SDS011;60603;52.548;13.420;2024-02-26T11:29:16;15.00;;;6.90;;
72573;SDS011;60603;52.548;13.420;2024-02-26T11:31:46;15.40;;;7.03;;
72573;SDS011;60603;52.548;13.420;2024-02-26T11:34:13;14.98;;;8.30;;
72573;SDS011;60603;52.548;13.420;2024-02-26T11:36:40;14.57;;;8.00;;
72573;SDS011;60603;52.548;13.420;2024-02-26T11:39:10;15.07;;;7.95;;
72573;SDS011;60603;52.548;13.420;2024-02-26T11:41:38;13.25;;;8.45;;
72573;SDS011;60603;52.548;13.420;2024-02-26T11:44:05;16.23;;;8.45;;
72573;SDS011;60603;52.548;13.420;2024-02-26T11:46:38;12.95;;;7.97;;
72573;SDS011;60603;52.548;13.420;2024-02-26T11:51:56;16.48;;;8.77;;
72573;SDS011;60603;52.548;13.420;2024-02-26T12:00:15;16.65;;;8.55;;
72573;SDS011;60603;52.548;13.420;2024-02-26T12:02:50;16.52;;;8.93;;
72573;SDS011;60603;52.548;13.420;2024-02-26T12:05:24;18.08;;;8.88;;
72573;SDS011;60603;52.548;13.420;2024-02-26T12:07:53;15.65;;;8.38;;
72573;SDS011;60603;52.548;13.420;2024-02-26T12:10:28;15.85;;;8.93;;
72573;SDS011;60603;52.548;13.420;2024-02-26T12:13:13;15.35;;;8.35;;
72573;SDS011;60603;52.548;13.420;2024-02-26T12:15:54;14.43;;;7.57;;
72573;SDS011;60603;52.548;13.420;2024-02-26T12:18:22;14.90;;;8.48;;
72573;SDS011;60603;52.548;13.420;2024-02-26T12:20:59;16.15;;;7.93;;
72573;SDS011;60603;52.548;13.420;2024-02-26T12:23:30;16.05;;;8.52;;
72573;SDS011;60603;52.548;13.420;2024-02-26T12:26:00;17.30;;;8.52;;
72573;SDS011;60603;52.548;13.420;2024-02-26T12:28:32;12.85;;;7.78;;
72573;SDS011;60603;52.548;13.420;2024-02-26T12:30:59;14.65;;;8.18;;
72573;SDS011;60603;52.548;13.420;2024-02-26T12:33:26;14.13;;;7.53;;
72573;SDS011;60603;52.548;13.420;2024-02-26T12:35:55;13.93;;;7.03;;
72573;SDS011;60603;52.548;13.420;2024-02-26T12:38:22;13.60;;;7.35;;
72573;SDS011;60603;52.548;13.420;2024-02-26T12:40:49;13.75;;;7.47;;
72573;SDS011;60603;52.548;13.420;2024-02-26T12:43:16;13.23;;;7.43;;
72573;SDS011;60603;52.548;13.420;2024-02-26T12:45:43;11.48;;;6.57;;
72573;SDS011;60603;52.548;13.420;2024-02-26T12:48:12;10.93;;;6.53;;
72573;SDS011;60603;52.548;13.420;2024-02-26T12:50:44;11.20;;;6.15;;
72573;SDS011;60603;52.548;13.420;2024-02-26T12:53:11;10.57;;;5.55;;
72573;SDS011;60603;52.548;13.420;2024-02-26T12:55:38;10.88;;;5.70;;
72573;SDS011;60603;52.548;13.420;2024-02-26T12:58:06;9.05;;;5.10;;
72573;SDS011;60603;52.548;13.420;2024-02-26T13:00:34;11.27;;;5.15;;
72573;SDS011;60603;52.548;13.420;2024-02-26T13:03:00;7.90;;;4.50;;
72573;SDS011;60603;52.548;13.420;2024-02-26T13:05:28;11.13;;;5.30;;
72573;SDS011;60603;52.548;13.420;2024-02-26T13:07:55;10.82;;;4.80;;
72573;SDS011;60603;52.548;13.420;2024-02-26T13:10:22;9.90;;;4.80;;
72573;SDS011;60603;52.548;13.420;2024-02-26T13:12:49;9.27;;;4.40;;
72573;SDS011;60603;52.548;13.420;2024-02-26T13:15:18;9.35;;;4.50;;
72573;SDS011;60603;52.548;13.420;2024-02-26T13:17:46;7.88;;;3.88;;
72573;SDS011;60603;52.548;13.420;2024-02-26T13:20:25;8.27;;;3.95;;
72573;SDS011;60603;52.548;13.420;2024-02-26T13:23:00;7.90;;;3.72;;
72573;SDS011;60603;52.548;13.420;2024-02-26T13:25:30;8.25;;;4.25;;
72573;SDS011;60603;52.548;13.420;2024-02-26T13:30:55;7.80;;;3.88;;
72573;SDS011;60603;52.548;13.420;2024-02-26T13:33:24;7.72;;;3.25;;
72573;SDS011;60603;52.548;13.420;2024-02-26T13:35:52;7.63;;;3.53;;
72573;SDS011;60603;52.548;13.420;2024-02-26T13:38:19;5.80;;;2.78;;
72573;SDS011;60603;52.548;13.420;2024-02-26T13:40:46;5.43;;;2.85;;
72573;SDS011;60603;52.548;13.420;2024-02-26T13:43:13;7.00;;;3.35;;
72573;SDS011;60603;52.548;13.420;2024-02-26T13:45:40;6.30;;;3.00;;
72573;SDS011;60603;52.548;13.420;2024-02-26T13:48:08;7.22;;;2.97;;
72573;SDS011;60603;52.548;13.420;2024-02-26T13:50:39;6.45;;;3.10;;
72573;SDS011;60603;52.548;13.420;2024-02-26T13:53:09;7.10;;;3.30;;
72573;SDS011;60603;52.548;13.420;2024-02-26T13:55:37;7.05;;;3.33;;
72573;SDS011;60603;52.548;13.420;2024-02-26T13:58:06;7.20;;;3.05;;
72573;SDS011;60603;52.548;13.420;2024-02-26T14:00:33;6.38;;;3.08;;
72573;SDS011;60603;52.548;13.420;2024-02-26T14:03:03;7.30;;;3.20;;
72573;SDS011;60603;52.548;13.420;2024-02-26T14:05:30;7.60;;;3.70;;
72573;SDS011;60603;52.548;13.420;2024-02-26T14:07:57;7.53;;;3.58;;
72573;SDS011;60603;52.548;13.420;2024-02-26T14:10:25;8.05;;;3.47;;
72573;SDS011;60603;52.548;13.420;2024-02-26T14:12:52;6.00;;;3.28;;
72573;SDS011;60603;52.548;13.420;2024-02-26T14:15:19;5.85;;;3.28;;
72573;SDS011;60603;52.548;13.420;2024-02-26T14:17:46;7.22;;;3.38;;
72573;SDS011;60603;52.548;13.420;2024-02-26T14:20:22;8.45;;;3.80;;
72573;SDS011;60603;52.548;13.420;2024-02-26T14:22:50;9.38;;;3.88;;
72573;SDS011;60603;52.548;13.420;2024-02-26T14:25:22;7.35;;;4.53;;
72573;SDS011;60603;52.548;13.420;2024-02-26T14:27:51;8.52;;;3.90;;
72573;SDS011;60603;52.548;13.420;2024-02-26T14:30:18;8.85;;;4.30;;
72573;SDS011;60603;52.548;13.420;2024-02-26T14:32:45;9.65;;;4.35;;
72573;SDS011;60603;52.548;13.420;2024-02-26T14:35:13;9.13;;;4.57;;
72573;SDS011;60603;52.548;13.420;2024-02-26T14:40:14;11.45;;;4.55;;
72573;SDS011;60603;52.548;13.420;2024-02-26T14:42:42;8.70;;;4.18;;